createdAt,value
2018-12-27T00:00:35.795Z,102289.87
2018-12-27T00:03:04.367Z,102292.39
2018-12-27T00:05:32.934Z,102287.90
2018-12-27T00:08:01.165Z,102282.23
2018-12-27T00:10:29.696Z,102288.56
2018-12-27T00:12:58.270Z,102276.90
2018-12-27T00:15:26.870Z,102283.77
2018-12-27T00:17:55.111Z,102281.49
2018-12-27T00:20:23.621Z,102279.25
2018-12-27T00:22:52.196Z,102288.93
2018-12-27T00:25:21.601Z,102287.31
2018-12-27T00:27:50.184Z,102282.89
2018-12-27T00:30:19.075Z,102294.21
2018-12-27T00:32:47.967Z,102283.70
2018-12-27T00:35:16.955Z,102280.58
2018-12-27T00:37:45.838Z,102282.58
2018-12-27T00:40:14.386Z,102281.97
2018-12-27T00:42:43.212Z,102288.31
2018-12-27T00:45:11.777Z,102290.96
2018-12-27T00:47:42.933Z,102283.23
2018-12-27T00:50:11.852Z,102282.92
2018-12-27T00:52:40.721Z,102283.31
2018-12-27T00:55:09.670Z,102276.08
2018-12-27T00:57:38.506Z,102272.02
2018-12-27T01:00:07.550Z,102272.02
2018-12-27T01:02:36.875Z,102261.75
2018-12-27T01:05:07.118Z,102263.64
2018-12-27T01:07:36.419Z,102264.02
2018-12-27T01:10:04.990Z,102263.36
2018-12-27T01:12:33.890Z,102255.05
2018-12-27T01:15:02.770Z,102252.88
2018-12-27T01:17:31.657Z,102254.69
2018-12-27T01:20:00.573Z,102251.57
2018-12-27T01:22:29.441Z,102245.78
2018-12-27T01:24:58.319Z,102252.44
2018-12-27T01:27:27.230Z,102246.97
2018-12-27T01:29:56.123Z,102251.27
2018-12-27T01:32:25.019Z,102251.24
2018-12-27T01:34:54.097Z,102245.64
2018-12-27T01:37:22.997Z,102246.13
2018-12-27T01:39:51.552Z,102238.12
2018-12-27T01:42:20.088Z,102240.03
2018-12-27T01:44:48.636Z,102236.17
2018-12-27T01:47:17.183Z,102237.23
2018-12-27T01:49:45.732Z,102235.74
2018-12-27T01:52:14.582Z,102234.38
2018-12-27T01:54:44.596Z,102227.20
2018-12-27T01:57:13.502Z,102231.25
2018-12-27T01:59:42.379Z,102229.34
2018-12-27T02:02:11.075Z,102224.30
2018-12-27T02:04:39.951Z,102232.28
2018-12-27T02:07:08.943Z,102237.44
2018-12-27T02:09:37.557Z,102226.37
2018-12-27T02:12:06.421Z,102227.91
2018-12-27T02:14:35.306Z,102224.94
2018-12-27T02:17:04.197Z,102224.09
2018-12-27T02:19:32.822Z,102225.97
2018-12-27T02:22:01.769Z,102221.27
2018-12-27T02:24:31.477Z,102223.08
2018-12-27T02:27:02.612Z,102221.76
2018-12-27T02:29:31.198Z,102217.70
2018-12-27T02:32:00.101Z,102213.03
2018-12-27T02:34:28.990Z,102212.09
2018-12-27T02:36:57.540Z,102209.19
2018-12-27T02:39:26.080Z,102203.17
2018-12-27T02:41:54.956Z,102203.44
2018-12-27T02:44:23.827Z,102202.41
2018-12-27T02:46:52.728Z,102206.00
2018-12-27T02:49:21.521Z,102204.41
2018-12-27T02:51:50.408Z,102202.59
2018-12-27T02:54:18.947Z,102194.70
2018-12-27T02:56:47.889Z,102193.61
2018-12-27T02:59:16.761Z,102190.44
2018-12-27T03:01:45.287Z,102195.61
2018-12-27T03:04:14.134Z,102188.68
2018-12-27T03:06:43.018Z,102181.63
2018-12-27T03:09:11.927Z,102185.39
2018-12-27T03:11:40.801Z,102186.54
2018-12-27T03:14:09.697Z,102176.86
2018-12-27T03:16:38.600Z,102177.41
2018-12-27T03:19:07.143Z,102182.42
2018-12-27T03:21:36.055Z,102178.86
2018-12-27T03:24:04.596Z,102168.95
2018-12-27T03:26:33.518Z,102168.58
2018-12-27T03:29:02.141Z,102167.14
2018-12-27T03:31:31.269Z,102157.67
2018-12-27T03:33:59.799Z,102162.48
2018-12-27T03:36:28.354Z,102155.15
2018-12-27T03:38:58.367Z,102157.13
2018-12-27T03:41:27.276Z,102155.42
2018-12-27T03:43:56.159Z,102150.67
2018-12-27T03:46:25.053Z,102141.86
2018-12-27T03:48:53.602Z,102140.91
2018-12-27T03:51:22.534Z,102144.16
2018-12-27T03:53:51.074Z,102139.81
2018-12-27T03:56:19.990Z,102141.34
2018-12-27T03:58:49.104Z,102138.11
2018-12-27T04:01:17.995Z,102137.33
2018-12-27T04:03:46.887Z,102129.17
2018-12-27T04:06:15.758Z,102130.31
2018-12-27T04:08:44.638Z,102134.31
2018-12-27T04:11:13.209Z,102127.88
2018-12-27T04:13:42.119Z,102128.94
2018-12-27T04:16:10.702Z,102132.11
2018-12-27T04:18:39.288Z,102130.12
2018-12-27T04:21:07.518Z,102131.98
2018-12-27T04:23:35.746Z,102122.70
2018-12-27T04:26:04.306Z,102126.08
2018-12-27T04:28:32.897Z,102120.09
2018-12-27T04:31:01.480Z,102125.32
2018-12-27T04:33:29.963Z,102122.47
2018-12-27T04:35:58.196Z,102118.23
2018-12-27T04:38:26.727Z,102120.25
2018-12-27T04:40:55.327Z,102123.53
2018-12-27T04:43:23.682Z,102127.38
2018-12-27T04:45:52.250Z,102125.02
2018-12-27T04:48:20.746Z,102119.91
2018-12-27T04:50:49.322Z,102129.32
2018-12-27T04:53:17.548Z,102120.90
2018-12-27T04:55:46.076Z,102129.09
2018-12-27T04:58:14.658Z,102126.95
2018-12-27T05:00:42.908Z,102116.25
2018-12-27T05:03:11.451Z,102124.06
2018-12-27T05:05:40.020Z,102122.60
2018-12-27T05:08:08.597Z,102119.94
2018-12-27T05:10:37.082Z,102120.17
2018-12-27T05:13:05.299Z,102118.42
2018-12-27T05:15:33.819Z,102114.98
2018-12-27T05:18:02.416Z,102115.70
2018-12-27T05:20:31.186Z,102121.78
2018-12-27T05:22:59.765Z,102118.27
2018-12-27T05:25:28.347Z,102126.26
2018-12-27T05:27:56.932Z,102116.43
2018-12-27T05:30:25.415Z,102113.80
2018-12-27T05:32:53.993Z,102119.94
2018-12-27T05:35:22.576Z,102119.38
2018-12-27T05:37:50.774Z,102120.12
2018-12-27T05:40:18.984Z,102123.77
2018-12-27T05:42:47.507Z,102125.28
2018-12-27T05:45:15.803Z,102127.95
2018-12-27T05:47:44.364Z,102129.30
2018-12-27T05:50:12.746Z,102119.88
2018-12-27T05:52:41.331Z,102119.94
2018-12-27T05:55:11.031Z,102124.70
2018-12-27T05:57:39.613Z,102127.60
2018-12-27T06:00:07.832Z,102128.74
2018-12-27T06:02:36.378Z,102133.05
2018-12-27T06:05:04.980Z,102134.56
2018-12-27T06:07:34.980Z,102136.66
2018-12-27T06:10:03.183Z,102135.52
2018-12-27T06:12:31.423Z,102134.04
2018-12-27T06:14:59.995Z,102129.27
2018-12-27T06:17:28.480Z,102125.14
2018-12-27T06:19:57.060Z,102132.66
2018-12-27T06:22:25.272Z,102124.98
2018-12-27T06:24:56.181Z,102128.87
2018-12-27T06:27:24.770Z,102133.42
2018-12-27T06:29:53.338Z,102134.42
2018-12-27T06:32:21.919Z,102134.44
2018-12-27T06:34:50.531Z,102134.34
2018-12-27T06:37:19.123Z,102125.76
2018-12-27T06:39:49.581Z,102125.72
2018-12-27T06:42:18.093Z,102119.69
2018-12-27T06:44:46.692Z,102122.19
2018-12-27T06:47:17.959Z,102123.59
2018-12-27T06:49:46.199Z,102125.36
2018-12-27T06:52:14.781Z,102124.13
2018-12-27T06:54:43.285Z,102114.78
2018-12-27T06:57:11.844Z,102123.08
2018-12-27T06:59:40.435Z,102126.42
2018-12-27T07:02:09.005Z,102129.20
2018-12-27T07:04:37.205Z,102132.08
2018-12-27T07:07:07.305Z,102128.80
2018-12-27T07:09:35.522Z,102128.16
2018-12-27T07:12:04.063Z,102127.99
2018-12-27T07:14:32.249Z,102125.59
2018-12-27T07:17:00.808Z,102129.64
2018-12-27T07:19:29.431Z,102125.20
2018-12-27T07:21:57.970Z,102119.20
2018-12-27T07:24:26.560Z,102127.59
2018-12-27T07:26:55.162Z,102125.22
2018-12-27T07:29:23.727Z,102135.20
2018-12-27T07:31:51.921Z,102130.16
2018-12-27T07:34:20.157Z,102125.41
2018-12-27T07:36:48.765Z,102123.86
2018-12-27T07:39:17.341Z,102131.91
2018-12-27T07:41:45.957Z,102126.47
2018-12-27T07:44:14.520Z,102137.71
2018-12-27T07:46:42.743Z,102140.48
2018-12-27T07:49:11.256Z,102135.94
2018-12-27T07:51:39.873Z,102131.69
2018-12-27T07:54:08.433Z,102132.19
2018-12-27T07:56:37.016Z,102122.83
2018-12-27T07:59:05.588Z,102118.91
2018-12-27T08:01:33.907Z,102119.50
2018-12-27T08:04:02.460Z,102125.67
2018-12-27T08:06:31.032Z,102119.62
2018-12-27T08:08:59.643Z,102124.09
2018-12-27T08:11:28.197Z,102121.80
2018-12-27T08:13:56.778Z,102127.59
2018-12-27T08:16:25.799Z,102135.35
2018-12-27T08:18:53.987Z,102125.88
2018-12-27T08:21:22.218Z,102129.06
2018-12-27T08:23:53.979Z,102127.63
2018-12-27T08:26:23.066Z,102120.66
2018-12-27T08:28:52.561Z,102117.66
2018-12-27T08:31:21.060Z,102120.36
2018-12-27T08:33:49.643Z,102121.97
2018-12-27T08:36:17.865Z,102125.81
2018-12-27T08:38:46.407Z,102120.20
2018-12-27T08:41:14.989Z,102116.92
2018-12-27T08:43:43.562Z,102126.17
2018-12-27T08:46:12.168Z,102122.89
2018-12-27T08:48:40.835Z,102119.61
2018-12-27T08:51:09.418Z,102120.60
2018-12-27T08:53:37.997Z,102119.02
2018-12-27T08:56:06.596Z,102112.94
2018-12-27T08:58:35.161Z,102102.95
2018-12-27T09:01:03.368Z,102105.52
2018-12-27T09:03:31.571Z,102101.41
2018-12-27T09:06:00.197Z,102104.20
2018-12-27T09:08:28.811Z,102095.11
2018-12-27T09:10:57.354Z,102092.78
2018-12-27T09:13:25.942Z,102091.83
2018-12-27T09:15:54.525Z,102097.69
2018-12-27T09:18:23.018Z,102091.61
2018-12-27T09:20:51.219Z,102092.31
2018-12-27T09:23:19.753Z,102087.77
2018-12-27T09:25:48.341Z,102087.87
2018-12-27T09:28:16.535Z,102085.27
2018-12-27T09:30:45.094Z,102084.62
2018-12-27T09:33:13.714Z,102084.52
2018-12-27T09:35:42.290Z,102078.56
2018-12-27T09:38:10.859Z,102081.64
2018-12-27T09:40:39.422Z,102082.14
2018-12-27T09:43:07.618Z,102082.27
2018-12-27T09:45:36.183Z,102085.98
2018-12-27T09:48:04.760Z,102084.79
2018-12-27T09:50:32.985Z,102089.64
2018-12-27T09:53:01.548Z,102090.20
2018-12-27T09:55:29.751Z,102090.81
2018-12-27T09:57:59.507Z,102079.97
2018-12-27T10:00:28.090Z,102077.84
2018-12-27T10:02:56.319Z,102073.31
2018-12-27T10:05:24.533Z,102072.15
2018-12-27T10:07:57.568Z,102069.37
2018-12-27T10:10:24.704Z,102069.39
2018-12-27T10:12:52.901Z,102067.65
2018-12-27T10:15:21.425Z,102073.13
2018-12-27T10:17:49.620Z,102061.73
2018-12-27T10:20:17.835Z,102062.11
2018-12-27T10:22:46.410Z,102053.94
2018-12-27T10:25:14.678Z,102053.23
2018-12-27T10:27:43.120Z,102051.59
2018-12-27T10:30:11.310Z,102050.97
2018-12-27T10:32:39.525Z,102041.42
2018-12-27T10:35:08.590Z,102047.45
2018-12-27T10:37:37.134Z,102046.06
2018-12-27T10:40:08.600Z,102044.40
2018-12-27T10:42:37.167Z,102045.36
2018-12-27T10:45:08.072Z,102045.00
2018-12-27T10:47:36.698Z,102038.85
2018-12-27T10:50:08.170Z,102039.64
2018-12-27T10:52:36.683Z,102036.68
2018-12-27T10:55:06.962Z,102034.11
2018-12-27T10:57:35.539Z,102034.50
2018-12-27T11:00:06.650Z,102030.00
2018-12-27T11:02:35.160Z,102026.77
2018-12-27T11:05:03.943Z,102021.92
2018-12-27T11:07:32.152Z,102020.61
2018-12-27T11:10:00.370Z,102013.00
2018-12-27T11:12:29.088Z,102009.95
2018-12-27T11:14:57.658Z,102008.95
2018-12-27T11:17:25.922Z,102010.64
2018-12-27T11:19:54.398Z,102003.27
2018-12-27T11:22:22.997Z,101997.45
2018-12-27T11:24:51.656Z,101994.14
2018-12-27T11:27:20.256Z,101987.24
2018-12-27T11:29:48.470Z,101989.69
2018-12-27T11:32:17.023Z,101982.31
2018-12-27T11:34:45.241Z,101981.54
2018-12-27T11:37:13.767Z,101968.73
2018-12-27T11:39:42.350Z,101966.72
2018-12-27T11:42:10.577Z,101966.58
2018-12-27T11:44:39.091Z,101952.94
2018-12-27T11:47:07.301Z,101948.49
2018-12-27T11:49:35.855Z,101951.99
2018-12-27T11:52:04.367Z,101945.00
2018-12-27T11:54:32.592Z,101934.94
2018-12-27T11:57:00.776Z,101940.41
2018-12-27T11:59:29.404Z,101928.51
2018-12-27T12:01:58.051Z,101928.80
2018-12-27T12:04:26.641Z,101928.97
2018-12-27T12:06:55.120Z,101930.63
2018-12-27T12:09:23.729Z,101926.32
2018-12-27T12:11:52.281Z,101925.37
2018-12-27T12:14:20.467Z,101922.28
2018-12-27T12:16:49.145Z,101927.98
2018-12-27T12:19:17.723Z,101918.47
2018-12-27T12:21:46.405Z,101910.86
2018-12-27T12:24:14.636Z,101905.50
2018-12-27T12:26:42.869Z,101905.97
2018-12-27T12:29:11.091Z,101904.70
2018-12-27T12:31:39.616Z,101890.81
2018-12-27T12:34:08.023Z,101894.70
2018-12-27T12:36:36.291Z,101899.95
2018-12-27T12:39:05.986Z,101903.95
2018-12-27T12:41:34.546Z,101904.67
2018-12-27T12:44:03.546Z,101905.35
2018-12-27T12:46:32.148Z,101908.42
2018-12-27T12:49:02.350Z,101920.10
2018-12-27T12:51:32.989Z,101915.02
2018-12-27T12:54:01.255Z,101921.46
2018-12-27T12:56:29.999Z,101924.69
2018-12-27T12:58:58.534Z,101934.22
2018-12-27T13:01:28.255Z,101931.53
2018-12-27T13:03:56.826Z,101920.34
2018-12-27T13:06:25.022Z,101927.94
2018-12-27T13:08:53.574Z,101922.45
2018-12-27T13:11:22.142Z,101931.26
2018-12-27T13:13:50.766Z,101928.72
2018-12-27T13:16:18.972Z,101929.63
2018-12-27T13:18:47.558Z,101932.35
2018-12-27T13:21:15.790Z,101932.92
2018-12-27T13:23:44.368Z,101931.33
2018-12-27T13:26:13.847Z,101933.98
2018-12-27T13:28:42.045Z,101936.67
2018-12-27T13:31:10.605Z,101930.97
2018-12-27T13:33:39.205Z,101929.73
2018-12-27T13:36:07.773Z,101929.94
2018-12-27T13:38:35.990Z,101927.40
2018-12-27T13:41:04.177Z,101927.22
2018-12-27T13:43:32.807Z,101926.62
2018-12-27T13:46:01.387Z,101935.81
2018-12-27T13:48:29.973Z,101928.59
2018-12-27T13:50:58.176Z,101931.83
2018-12-27T13:53:26.750Z,101923.98
2018-12-27T13:55:54.976Z,101922.16
2018-12-27T13:58:23.203Z,101924.08
2018-12-27T14:00:51.754Z,101923.36
2018-12-27T14:03:20.339Z,101925.81
2018-12-27T14:18:35.232Z,101899.08
2018-12-27T14:21:03.691Z,101901.34
2018-12-27T14:23:32.292Z,101904.70
2018-12-27T14:26:00.785Z,101905.48
2018-12-27T14:28:29.046Z,101913.91
2018-12-27T14:30:57.542Z,101905.78
2018-12-27T14:33:25.779Z,101906.25
2018-12-27T14:35:54.286Z,101908.79
2018-12-27T14:38:22.855Z,101904.73
2018-12-27T14:40:51.101Z,101908.41
2018-12-27T14:43:19.585Z,101914.72
2018-12-27T14:45:47.794Z,101914.53
2018-12-27T14:48:16.021Z,101925.08
2018-12-27T14:50:44.483Z,101925.77
2018-12-27T14:53:12.961Z,101921.52
2018-12-27T14:55:41.180Z,101921.55
2018-12-27T14:58:09.417Z,101926.02
2018-12-27T15:00:39.106Z,101925.52
2018-12-27T15:03:07.591Z,101922.64
2018-12-27T15:05:36.096Z,101922.15
2018-12-27T15:08:04.543Z,101921.93
2018-12-27T15:10:33.094Z,101921.13
2018-12-27T15:13:01.599Z,101920.75
2018-12-27T15:15:30.067Z,101917.79
2018-12-27T15:17:58.620Z,101920.05
2018-12-27T15:20:27.088Z,101914.06
2018-12-27T15:22:55.291Z,101907.70
2018-12-27T15:25:23.792Z,101908.59
2018-12-27T15:27:52.314Z,101903.97
2018-12-27T15:30:20.836Z,101907.00
2018-12-27T15:32:49.047Z,101903.73
2018-12-27T15:35:17.495Z,101903.88
2018-12-27T15:37:45.987Z,101898.43
2018-12-27T15:40:14.442Z,101895.72
2018-12-27T15:42:43.021Z,101897.60
2018-12-27T15:45:11.492Z,101908.03
2018-12-27T15:47:40.046Z,101899.39
2018-12-27T15:50:08.782Z,101902.80
2018-12-27T15:52:37.285Z,101902.71
2018-12-27T15:55:05.470Z,101911.45
2018-12-27T15:57:33.995Z,101916.64
2018-12-27T16:00:02.546Z,101900.05
2018-12-27T16:02:30.740Z,101916.69
2018-12-27T16:04:59.230Z,101914.27
2018-12-27T16:07:27.438Z,101908.56
2018-12-27T16:09:55.971Z,101916.36
2018-12-27T16:12:24.495Z,101917.80
2018-12-27T16:14:53.020Z,101915.88
2018-12-27T16:17:21.515Z,101919.67
2018-12-27T16:19:50.017Z,101919.80
2018-12-27T16:22:18.488Z,101923.89
2018-12-27T16:24:46.969Z,101912.02
2018-12-27T16:27:15.467Z,101903.56
2018-12-27T16:29:43.684Z,101913.11
2018-12-27T16:32:12.162Z,101918.65
2018-12-27T16:34:40.646Z,101912.20
2018-12-27T16:37:09.383Z,101918.16
2018-12-27T16:39:37.938Z,101923.91
2018-12-27T16:42:06.432Z,101926.94
2018-12-27T16:44:34.709Z,101924.59
2018-12-27T16:47:03.224Z,101929.38
2018-12-27T16:49:31.771Z,101928.77
2018-12-27T16:52:00.321Z,101918.08
2018-12-27T16:54:28.732Z,101920.12
2018-12-27T16:56:57.297Z,101927.32
2018-12-27T16:59:25.803Z,101927.92
2018-12-27T17:01:54.336Z,101922.08
2018-12-27T17:04:22.563Z,101930.05
2018-12-27T17:06:51.068Z,101928.13
2018-12-27T17:09:19.311Z,101931.51
2018-12-27T17:11:47.796Z,101931.71
2018-12-27T17:14:16.321Z,101925.39
2018-12-27T17:16:44.506Z,101923.94
2018-12-27T17:19:13.594Z,101922.29
2018-12-27T17:21:41.786Z,101919.38
2018-12-27T17:24:10.325Z,101910.62
2018-12-27T17:26:38.775Z,101913.42
2018-12-27T17:29:07.052Z,101914.11
2018-12-27T17:31:35.559Z,101914.98
2018-12-27T17:34:04.049Z,101920.13
2018-12-27T17:36:32.565Z,101916.28
2018-12-27T17:39:00.779Z,101926.08
2018-12-27T17:41:29.279Z,101922.69
2018-12-27T17:43:57.642Z,101925.80
2018-12-27T17:46:26.300Z,101926.58
2018-12-27T17:48:54.781Z,101922.79
2018-12-27T17:51:23.245Z,101933.86
2018-12-27T17:53:51.475Z,101932.38
2018-12-27T17:56:19.944Z,101922.50
2018-12-27T17:58:48.435Z,101919.88
2018-12-27T18:01:16.846Z,101921.23
2018-12-27T18:03:45.336Z,101916.86
2018-12-27T18:06:13.570Z,101917.83
2018-12-27T18:08:42.083Z,101912.47
2018-12-27T18:11:10.313Z,101914.22
2018-12-27T18:13:38.802Z,101914.23
2018-12-27T18:16:07.117Z,101919.85
2018-12-27T18:18:35.691Z,101916.46
2018-12-27T18:21:04.213Z,101919.93
2018-12-27T18:23:32.719Z,101915.27
2018-12-27T18:26:02.821Z,101918.58
2018-12-27T18:28:32.108Z,101920.67
2018-12-27T18:31:00.583Z,101923.78
2018-12-27T18:33:29.082Z,101923.30
2018-12-27T18:35:57.376Z,101930.00
2018-12-27T18:38:25.672Z,101924.75
2018-12-27T18:40:54.290Z,101927.38
2018-12-27T18:43:22.829Z,101935.83
2018-12-27T18:45:51.311Z,101936.80
2018-12-27T18:48:19.513Z,101934.86
2018-12-27T18:50:47.991Z,101930.29
2018-12-27T18:53:16.255Z,101929.45
2018-12-27T18:55:45.069Z,101936.73
2018-12-27T18:58:13.668Z,101932.08
2018-12-27T19:00:42.200Z,101934.70
2018-12-27T19:03:10.708Z,101934.59
2018-12-27T19:05:38.909Z,101942.86
2018-12-27T19:08:07.445Z,101940.62
2018-12-27T19:10:35.968Z,101938.28
2018-12-27T19:13:06.394Z,101938.13
2018-12-27T19:15:37.882Z,101938.28
2018-12-27T19:18:12.206Z,101937.51
2018-12-27T19:20:43.108Z,101947.32
2018-12-27T19:23:13.753Z,101944.59
2018-12-27T19:25:42.216Z,101944.31
2018-12-27T19:28:10.711Z,101946.64
2018-12-27T19:30:39.323Z,101941.01
2018-12-27T19:33:07.847Z,101945.57
2018-12-27T19:35:38.004Z,101949.84
2018-12-27T19:38:06.535Z,101949.66
2018-12-27T19:40:34.758Z,101949.07
2018-12-27T19:43:03.224Z,101946.55
2018-12-27T19:45:31.742Z,101943.82
2018-12-27T19:48:00.652Z,101943.59
2018-12-27T19:50:29.159Z,101939.55
2018-12-27T19:52:57.737Z,101939.75
2018-12-27T19:55:26.778Z,101945.86
2018-12-27T19:57:55.278Z,101941.88
2018-12-27T20:00:23.786Z,101937.41
2018-12-27T20:02:52.014Z,101932.45
2018-12-27T20:05:20.302Z,101934.69
2018-12-27T20:07:48.853Z,101927.34
2018-12-27T20:10:17.347Z,101931.42
2018-12-27T20:12:45.831Z,101918.28
2018-12-27T20:15:14.098Z,101929.90
2018-12-27T20:17:42.632Z,101937.23
2018-12-27T20:20:13.548Z,101936.74
2018-12-27T20:22:42.106Z,101927.62
2018-12-27T20:25:10.321Z,101934.42
2018-12-27T20:27:38.507Z,101930.44
2018-12-27T20:30:08.554Z,101933.88
2018-12-27T20:32:37.042Z,101933.78
2018-12-27T20:35:05.890Z,101932.91
2018-12-27T20:37:34.420Z,101935.24
2018-12-27T20:40:03.478Z,101929.61
2018-12-27T20:42:32.007Z,101922.75
2018-12-27T20:45:00.614Z,101919.16
2018-12-27T20:47:28.863Z,101925.27
2018-12-27T20:49:57.366Z,101920.80
2018-12-27T20:52:27.527Z,101924.30
2018-12-27T20:54:55.737Z,101923.81
2018-12-27T20:57:24.301Z,101929.73
2018-12-27T20:59:52.788Z,101931.75
2018-12-27T21:02:21.012Z,101923.69
2018-12-27T21:04:49.504Z,101930.97
2018-12-27T21:07:17.745Z,101928.25
2018-12-27T21:09:46.415Z,101926.12
2018-12-27T21:12:15.628Z,101932.03
2018-12-27T21:14:44.706Z,101949.61
2018-12-27T21:17:13.194Z,101953.88
2018-12-27T21:19:41.782Z,101957.23
2018-12-27T21:22:10.274Z,101954.84
2018-12-27T21:24:38.798Z,101957.08
2018-12-27T21:27:07.327Z,101946.20
2018-12-27T21:29:35.796Z,101937.67
2018-12-27T21:32:04.286Z,101937.86
2018-12-27T21:34:33.011Z,101937.77
2018-12-27T21:37:02.207Z,101936.83
2018-12-27T21:39:30.427Z,101932.75
2018-12-27T21:41:58.760Z,101937.12
2018-12-27T21:44:27.276Z,101941.20
2018-12-27T21:46:55.474Z,101936.25
2018-12-27T21:49:24.055Z,101932.91
2018-12-27T21:51:53.303Z,101935.37
2018-12-27T21:54:21.559Z,101925.47
2018-12-27T21:56:50.039Z,101931.30
2018-12-27T21:59:18.591Z,101930.88
2018-12-27T22:01:47.406Z,101926.59
2018-12-27T22:04:17.545Z,101930.00
2018-12-27T22:06:46.039Z,101929.13
2018-12-27T22:09:14.295Z,101924.95
2018-12-27T22:11:42.817Z,101877.82
2018-12-27T22:14:11.079Z,101925.72
2018-12-27T22:16:39.639Z,101924.27
2018-12-27T22:19:08.141Z,101920.39
2018-12-27T22:21:36.357Z,101928.92
2018-12-27T22:24:04.863Z,101931.16
2018-12-27T22:26:33.094Z,101923.59
2018-12-27T22:29:01.606Z,101930.87
2018-12-27T22:31:29.814Z,101932.81
2018-12-27T22:33:58.129Z,101936.70
2018-12-27T22:36:26.647Z,101942.52
2018-12-27T22:38:55.141Z,101948.83
2018-12-27T22:41:25.247Z,101952.33
2018-12-27T22:43:53.714Z,101956.80
2018-12-27T22:46:22.339Z,101959.37
2018-12-27T22:48:50.595Z,101954.02
2018-12-27T22:51:19.068Z,101954.32
2018-12-27T22:53:47.571Z,101955.58
2018-12-27T22:56:16.046Z,101956.16
2018-12-27T22:58:44.534Z,101959.77
2018-12-27T23:01:13.060Z,101955.34
2018-12-27T23:03:41.581Z,101956.02
2018-12-27T23:06:10.081Z,101948.93
2018-12-27T23:08:43.088Z,101943.50
2018-12-27T23:11:08.805Z,101949.03
2018-12-27T23:13:37.066Z,101948.16
2018-12-27T23:16:05.548Z,101945.44
2018-12-27T23:18:34.062Z,101946.75
2018-12-27T23:21:02.578Z,101949.47
2018-12-27T23:23:31.534Z,101947.23
2018-12-27T23:26:00.036Z,101948.20
2018-12-27T23:28:28.566Z,101944.61
2018-12-27T23:30:57.102Z,101944.11
2018-12-27T23:33:25.656Z,101938.84
2018-12-27T23:35:54.765Z,101950.48
2018-12-27T23:38:23.247Z,101946.41
2018-12-27T23:40:51.723Z,101949.94
2018-12-27T23:43:20.228Z,101948.67
2018-12-27T23:45:48.476Z,101946.48
2018-12-27T23:48:16.970Z,101951.34
2018-12-27T23:50:46.712Z,101949.10
2018-12-27T23:53:15.238Z,101947.16
2018-12-27T23:55:43.490Z,101945.66
2018-12-27T23:58:11.928Z,101942.16
